Time;durP1;ratioP1;P1;durP2;ratioP2;P2;SDS_P1;SDS_P2;PMS_P1;PMS_P2;Temp;Humidity;BMP_temperature;BMP_pressure;BME280_temperature;BME280_humidity;BME280_pressure;Samples;Min_cycle;Max_cycle;Signal;HPM_P1;HPM_P2
2021/07/04 00:00:22;;;;;;;4.28;2.90;;;19.20;89.70;;;;;;2083877;28;20048;-84
2021/07/04 00:01:23;;;;;;;3.80;3.00;;;19.10;89.10;;;;;;2085315;28;20036;-84
2021/07/04 00:02:24;;;;;;;4.07;3.00;;;19.10;89.60;;;;;;2067275;28;20072;-85
2021/07/04 00:03:24;;;;;;;3.85;2.83;;;19.20;89.10;;;;;;2066410;28;20037;-84
2021/07/04 00:04:25;;;;;;;4.65;3.05;;;19.20;89.10;;;;;;2080205;28;20033;-84
2021/07/04 00:05:35;;;;;;;4.85;3.15;;;19.10;89.70;;;;;;2076086;28;20067;-84
2021/07/04 00:06:36;;;;;;;5.40;3.30;;;19.10;89.10;;;;;;2075516;28;20029;-84
2021/07/04 00:07:41;;;;;;;4.97;3.33;;;19.10;89.10;;;;;;2062447;28;20066;-84
2021/07/04 00:08:41;;;;;;;4.68;3.10;;;19.10;89.10;;;;;;2058477;28;20046;-84
2021/07/04 00:09:42;;;;;;;4.25;3.10;;;19.10;89.10;;;;;;2061975;28;20529;-84
2021/07/04 00:10:50;;;;;;;4.50;3.00;;;19.20;89.20;;;;;;2060688;28;20819;-85
2021/07/04 00:11:51;;;;;;;4.22;2.80;;;19.20;89.80;;;;;;2068248;28;20026;-84
2021/07/04 00:12:52;;;;;;;4.00;3.03;;;19.10;89.20;;;;;;2073088;28;20464;-84
2021/07/04 00:13:53;;;;;;;4.20;3.17;;;19.20;89.20;;;;;;2058050;28;20149;-84
2021/07/04 00:14:53;;;;;;;4.53;3.17;;;19.10;89.20;;;;;;2053698;28;20091;-84
2021/07/04 00:15:55;;;;;;;4.50;3.13;;;19.20;89.40;;;;;;2054110;28;20054;-83
2021/07/04 00:16:55;;;;;;;4.07;3.00;;;19.10;89.30;;;;;;2056359;28;20034;-84
2021/07/04 00:17:56;;;;;;;4.38;3.00;;;19.10;89.40;;;;;;2062170;28;20093;-85
2021/07/04 00:18:57;;;;;;;4.13;3.00;;;19.10;89.40;;;;;;2056946;28;20520;-84
2021/07/04 00:19:57;;;;;;;4.55;3.35;;;19.10;89.40;;;;;;2062950;28;20026;-85
2021/07/04 00:21:00;;;;;;;4.60;3.15;;;19.10;89.40;;;;;;2072549;28;20092;-85
2021/07/04 00:22:01;;;;;;;3.90;2.88;;;19.10;89.40;;;;;;2074665;28;20025;-85
2021/07/04 00:23:02;;;;;;;4.10;2.70;;;19.10;89.40;;;;;;2072840;28;20059;-84
2021/07/04 00:24:03;;;;;;;4.35;2.95;;;19.10;89.40;;;;;;2070822;28;20030;-84
2021/07/04 00:25:07;;;;;;;4.15;2.88;;;19.10;89.50;;;;;;2079129;28;20373;-84
2021/07/04 00:26:08;;;;;;;4.18;3.10;;;19.10;89.50;;;;;;2082661;28;20029;-84
2021/07/04 00:27:08;;;;;;;4.45;3.00;;;19.10;89.50;;;;;;2081777;28;20112;-84
2021/07/04 00:28:10;;;;;;;2.97;2.30;;;19.10;89.50;;;;;;2076751;28;20034;-85
2021/07/04 00:29:11;;;;;;;3.22;2.50;;;19.10;89.50;;;;;;2081275;28;20414;-85
2021/07/04 00:30:14;;;;;;;4.45;2.95;;;19.10;89.50;;;;;;2074623;28;20030;-85
2021/07/04 00:31:14;;;;;;;4.45;2.80;;;19.10;89.50;;;;;;2072614;28;20026;-85
2021/07/04 00:32:15;;;;;;;3.20;2.50;;;19.10;89.50;;;;;;2082088;28;20037;-84
2021/07/04 00:33:16;;;;;;;4.80;2.80;;;19.10;89.50;;;;;;2067910;28;20033;-85
2021/07/04 00:34:17;;;;;;;3.70;2.70;;;19.00;89.30;;;;;;2073411;28;20065;-83
2021/07/04 00:35:21;;;;;;;3.38;2.55;;;19.10;89.40;;;;;;2071228;28;20030;-85
2021/07/04 00:36:22;;;;;;;3.70;2.70;;;19.00;89.40;;;;;;2082620;28;20067;-85
2021/07/04 00:37:23;;;;;;;4.10;2.35;;;19.00;89.50;;;;;;2089005;28;20028;-84
2021/07/04 00:38:24;;;;;;;3.58;2.50;;;19.00;89.60;;;;;;2082691;28;20060;-84
2021/07/04 00:39:24;;;;;;;4.20;2.55;;;19.00;89.60;;;;;;2074074;28;20372;-83
2021/07/04 00:40:26;;;;;;;3.85;2.60;;;19.00;89.80;;;;;;2062984;28;20393;-84
2021/07/04 00:41:27;;;;;;;4.13;2.47;;;18.90;89.90;;;;;;2076364;28;20041;-83
2021/07/04 00:42:27;;;;;;;4.72;2.47;;;18.90;89.90;;;;;;2095642;28;20035;-83
2021/07/04 00:43:28;;;;;;;3.80;2.50;;;18.90;89.90;;;;;;2083294;28;20069;-83
2021/07/04 00:44:29;;;;;;;4.13;2.60;;;18.90;90.20;;;;;;2084222;28;20027;-83
2021/07/04 00:45:29;;;;;;;3.80;2.70;;;18.90;90.00;;;;;;2087622;28;20016;-83
2021/07/04 00:46:31;;;;;;;3.50;2.33;;;18.80;90.00;;;;;;2083456;28;20014;-83
2021/07/04 00:47:31;;;;;;;2.97;2.28;;;18.80;90.10;;;;;;2073954;28;20060;-83
2021/07/04 00:48:32;;;;;;;4.82;2.63;;;18.80;90.10;;;;;;2080144;28;20045;-84
2021/07/04 00:49:33;;;;;;;3.85;2.50;;;18.80;90.10;;;;;;2072749;28;20030;-84
2021/07/04 00:50:35;;;;;;;3.03;2.17;;;18.80;90.20;;;;;;2088090;28;20029;-83
2021/07/04 00:51:35;;;;;;;3.30;2.30;;;18.80;90.20;;;;;;2094010;28;20026;-83
2021/07/04 00:52:36;;;;;;;4.22;2.38;;;18.80;90.30;;;;;;2090478;28;20053;-84
2021/07/04 00:53:39;;;;;;;4.65;2.50;;;18.70;90.30;;;;;;2087895;28;20030;-83
2021/07/04 00:54:40;;;;;;;3.35;2.25;;;18.80;90.30;;;;;;2088738;28;20022;-84
2021/07/04 00:55:41;;;;;;;3.47;2.40;;;18.70;90.40;;;;;;2095514;28;20053;-83
2021/07/04 00:56:42;;;;;;;3.67;2.20;;;18.70;90.40;;;;;;2091262;28;20001;-84
2021/07/04 00:57:44;;;;;;;3.40;2.30;;;18.70;90.40;;;;;;2073830;28;20030;-84
2021/07/04 00:58:45;;;;;;;3.60;2.60;;;18.70;90.50;;;;;;2074981;28;20037;-84
2021/07/04 00:59:45;;;;;;;3.70;2.40;;;18.70;90.50;;;;;;2075781;28;20074;-83
2021/07/04 01:00:46;;;;;;;3.50;2.38;;;18.70;90.50;;;;;;2073442;28;20079;-83
2021/07/04 01:01:48;;;;;;;3.38;2.38;;;18.70;90.50;;;;;;2065627;28;20392;-84
2021/07/04 01:02:49;;;;;;;3.47;2.20;;;18.70;90.60;;;;;;2070909;28;20069;-84
2021/07/04 01:03:50;;;;;;;4.07;2.30;;;18.70;90.60;;;;;;2082887;28;20113;-83
2021/07/04 01:04:51;;;;;;;3.63;2.25;;;18.70;90.60;;;;;;2080859;28;20033;-83
2021/07/04 01:05:52;;;;;;;4.15;2.50;;;18.70;90.60;;;;;;2079816;28;20511;-84
2021/07/04 01:06:52;;;;;;;3.05;2.20;;;18.70;90.60;;;;;;2080282;28;20033;-82
2021/07/04 01:07:54;;;;;;;4.60;2.40;;;18.70;90.70;;;;;;2070379;28;20086;-83
2021/07/04 01:08:54;;;;;;;3.53;2.42;;;18.70;90.70;;;;;;2066208;28;20125;-83
2021/07/04 01:09:55;;;;;;;3.97;2.70;;;18.70;90.70;;;;;;2057755;28;20031;-84
2021/07/04 01:10:56;;;;;;;3.78;2.50;;;18.70;90.70;;;;;;2050618;28;20070;-84
2021/07/04 01:11:56;;;;;;;2.92;2.20;;;18.70;90.70;;;;;;2068721;28;20030;-83
2021/07/04 01:12:59;;;;;;;4.57;2.67;;;18.70;90.70;;;;;;2096267;28;20025;-84
2021/07/04 01:14:00;;;;;;;3.53;2.60;;;18.70;90.70;;;;;;2091583;28;20041;-84
2021/07/04 01:15:03;;;;;;;3.40;2.55;;;18.70;90.70;;;;;;2084287;28;20029;-83
2021/07/04 01:16:04;;;;;;;3.28;2.40;;;18.70;90.70;;;;;;2087178;28;20018;-84
2021/07/04 01:17:05;;;;;;;4.65;2.85;;;18.70;90.70;;;;;;2100736;28;20036;-83
2021/07/04 01:18:07;;;;;;;3.60;2.45;;;18.70;90.70;;;;;;2073414;28;20112;-83
2021/07/04 01:19:13;;;;;;;3.88;2.60;;;18.70;90.80;;;;;;2073126;28;20034;-83
2021/07/04 01:20:17;;;;;;;3.47;2.40;;;18.70;90.80;;;;;;2085546;28;20112;-84
2021/07/04 01:21:20;;;;;;;3.78;2.40;;;18.70;90.80;;;;;;2090625;28;20040;-83
2021/07/04 01:22:23;;;;;;;3.88;2.50;;;18.70;90.70;;;;;;2066991;28;20069;-83
2021/07/04 01:23:24;;;;;;;4.28;2.58;;;18.70;90.70;;;;;;2059321;28;20146;-83
2021/07/04 01:24:25;;;;;;;3.72;2.55;;;18.70;90.70;;;;;;2073801;28;20034;-83
2021/07/04 01:25:28;;;;;;;3.00;2.28;;;18.80;90.70;;;;;;2073354;28;20104;-83
2021/07/04 01:26:28;;;;;;;3.97;2.50;;;18.70;90.70;;;;;;2073037;28;20037;-83
2021/07/04 01:27:29;;;;;;;4.18;2.60;;;18.70;90.70;;;;;;2074297;28;20032;-83
2021/07/04 01:28:30;;;;;;;3.53;2.50;;;18.70;90.80;;;;;;2066956;28;20388;-84
2021/07/04 01:29:31;;;;;;;4.43;2.90;;;18.70;90.80;;;;;;2070844;28;20033;-83
2021/07/04 01:30:33;;;;;;;3.78;2.38;;;18.70;90.80;;;;;;2071905;28;20041;-83
2021/07/04 01:31:34;;;;;;;3.90;2.50;;;18.70;90.80;;;;;;2067332;28;20041;-82
2021/07/04 01:32:35;;;;;;;3.92;2.65;;;18.70;91.10;;;;;;2072085;28;20030;-83
2021/07/04 01:33:36;;;;;;;3.55;2.42;;;18.70;90.80;;;;;;2059960;28;20057;-83
2021/07/04 01:34:37;;;;;;;4.85;2.63;;;18.70;90.80;;;;;;2059282;28;20029;-83
2021/07/04 01:35:38;;;;;;;2.95;2.35;;;18.70;90.80;;;;;;2064159;28;20415;-83
2021/07/04 01:36:40;;;;;;;4.32;2.40;;;18.70;90.80;;;;;;2065549;28;20054;-83
2021/07/04 01:37:40;;;;;;;3.60;2.70;;;18.70;90.80;;;;;;2065285;28;20035;-84
2021/07/04 01:38:41;;;;;;;4.28;2.50;;;18.70;90.80;;;;;;2070221;28;20176;-83
2021/07/04 01:39:42;;;;;;;3.63;2.60;;;18.80;90.80;;;;;;2074774;28;20032;-83
2021/07/04 01:40:43;;;;;;;3.15;2.33;;;18.70;90.80;;;;;;2066514;28;20427;-83
2021/07/04 01:41:43;;;;;;;3.30;2.30;;;18.80;90.80;;;;;;2060655;28;20029;-83
2021/07/04 01:42:46;;;;;;;3.60;2.60;;;18.70;90.80;;;;;;2077570;28;20029;-83
2021/07/04 01:43:46;;;;;;;4.15;2.70;;;18.70;90.80;;;;;;2087758;28;20036;-83
2021/07/04 01:44:47;;;;;;;3.65;2.40;;;18.80;90.80;;;;;;2078147;28;20034;-83
2021/07/04 01:45:48;;;;;;;4.10;2.88;;;18.80;90.80;;;;;;2062954;28;20492;-83
2021/07/04 01:46:49;;;;;;;4.25;2.70;;;18.70;90.80;;;;;;2072385;28;20392;-84
2021/07/04 01:47:51;;;;;;;3.45;2.25;;;18.70;90.80;;;;;;2078005;28;20061;-84
2021/07/04 01:48:51;;;;;;;3.47;2.50;;;18.70;90.80;;;;;;2073363;28;20041;-84
2021/07/04 01:49:52;;;;;;;3.60;2.67;;;18.70;90.80;;;;;;2072328;28;20595;-85
2021/07/04 01:50:53;;;;;;;4.38;2.60;;;18.70;90.80;;;;;;2078369;28;20049;-84
2021/07/04 01:51:54;;;;;;;4.05;2.50;;;18.70;90.80;;;;;;2065743;28;20081;-85
2021/07/04 01:52:55;;;;;;;3.78;2.67;;;18.70;90.80;;;;;;2063810;28;20436;-84
2021/07/04 01:53:56;;;;;;;3.40;2.30;;;18.70;90.80;;;;;;2065713;28;20038;-85
2021/07/04 01:54:56;;;;;;;3.92;2.55;;;18.70;90.80;;;;;;2072086;28;20050;-84
2021/07/04 01:55:57;;;;;;;3.30;2.28;;;18.80;90.80;;;;;;2073580;28;20471;-84
2021/07/04 01:56:58;;;;;;;3.30;2.38;;;18.80;90.80;;;;;;2064956;28;20389;-84
2021/07/04 01:57:59;;;;;;;3.70;2.50;;;18.80;90.80;;;;;;2064295;28;20452;-84
2021/07/04 01:59:00;;;;;;;3.08;2.30;;;18.70;90.80;;;;;;2072652;28;20115;-85
2021/07/04 02:00:07;;;;;;;3.53;2.25;;;18.70;90.70;;;;;;2073631;28;20042;-84
2021/07/04 02:01:08;;;;;;;3.40;2.47;;;18.80;90.80;;;;;;2069696;28;20045;-85
2021/07/04 02:02:09;;;;;;;3.58;2.60;;;18.70;90.70;;;;;;2056660;28;20027;-84
2021/07/04 02:03:11;;;;;;;3.10;2.28;;;18.70;90.70;;;;;;2057402;28;20113;-85
2021/07/04 02:04:12;;;;;;;2.92;2.22;;;18.70;90.70;;;;;;2068043;28;20080;-85
2021/07/04 02:05:13;;;;;;;3.05;2.35;;;18.70;90.80;;;;;;2071795;28;20088;-84
2021/07/04 02:06:14;;;;;;;4.65;2.50;;;18.70;90.80;;;;;;2065602;28;20069;-85
2021/07/04 02:07:15;;;;;;;3.60;2.42;;;18.70;90.80;;;;;;2057161;28;20038;-85
2021/07/04 02:08:16;;;;;;;4.32;2.50;;;18.70;90.80;;;;;;2065676;28;20396;-85
2021/07/04 02:09:17;;;;;;;2.97;2.10;;;18.70;90.80;;;;;;2077961;28;20021;-84
2021/07/04 02:10:27;;;;;;;3.65;2.65;;;18.70;90.80;;;;;;2076064;28;20029;-85
2021/07/04 02:11:27;;;;;;;3.15;2.35;;;18.70;90.80;;;;;;2082463;28;20108;-84
2021/07/04 02:12:28;;;;;;;2.97;2.13;;;18.70;90.80;;;;;;2087906;28;20498;-84
2021/07/04 02:13:29;;;;;;;3.15;2.35;;;18.70;90.80;;;;;;2072106;28;20045;-85
2021/07/04 02:14:30;;;;;;;2.70;2.17;;;18.70;90.90;;;;;;2067610;28;20038;-85
2021/07/04 02:15:33;;;;;;;3.83;2.67;;;18.70;90.80;;;;;;2068851;28;20053;-85
2021/07/04 02:16:34;;;;;;;4.45;2.55;;;18.70;90.80;;;;;;2075414;28;20033;-84
2021/07/04 02:17:35;;;;;;;3.30;2.40;;;18.70;90.80;;;;;;2073508;28;20022;-84
2021/07/04 02:18:35;;;;;;;3.47;2.08;;;18.70;90.80;;;;;;2065894;28;20366;-84
2021/07/04 02:19:39;;;;;;;3.67;2.47;;;18.70;90.80;;;;;;2061563;28;20485;-84
2021/07/04 02:20:51;;;;;;;3.20;2.33;;;18.70;90.80;;;;;;2066199;28;20025;-84
2021/07/04 02:21:53;;;;;;;3.67;2.40;;;18.70;90.80;;;;;;2079609;28;20029;-85
2021/07/04 02:22:54;;;;;;;3.40;2.25;;;18.70;90.80;;;;;;2080602;28;20361;-85
2021/07/04 02:23:54;;;;;;;3.63;2.50;;;18.70;90.70;;;;;;2066947;28;20034;-84
2021/07/04 02:24:55;;;;;;;3.72;2.30;;;18.70;90.70;;;;;;2063278;28;20146;-84
2021/07/04 02:25:57;;;;;;;3.95;2.42;;;18.80;90.80;;;;;;2056968;28;20539;-84
2021/07/04 02:26:59;;;;;;;3.53;2.30;;;18.70;90.70;;;;;;2071855;28;20471;-84
2021/07/04 02:27:59;;;;;;;4.03;2.67;;;18.80;90.80;;;;;;2072580;28;20036;-84
2021/07/04 02:29:00;;;;;;;2.90;2.20;;;18.80;90.70;;;;;;2071889;28;20041;-84
2021/07/04 02:30:01;;;;;;;3.42;2.30;;;18.80;90.70;;;;;;2065796;28;20023;-84
2021/07/04 02:31:02;;;;;;;3.20;2.40;;;18.80;90.70;;;;;;2081602;28;20184;-85
2021/07/04 02:32:03;;;;;;;4.35;2.65;;;18.80;90.70;;;;;;2081527;28;20017;-84
2021/07/04 02:33:06;;;;;;;3.40;2.30;;;18.80;90.70;;;;;;2073778;28;20037;-84
2021/07/04 02:34:07;;;;;;;3.85;2.55;;;18.80;90.70;;;;;;2086734;28;20553;-84
2021/07/04 02:35:08;;;;;;;3.45;2.17;;;18.80;90.70;;;;;;2066389;28;20084;-84
2021/07/04 02:36:09;;;;;;;3.53;2.28;;;18.80;90.70;;;;;;2066647;28;20030;-85
2021/07/04 02:37:09;;;;;;;3.08;2.40;;;18.80;90.80;;;;;;2066284;28;20044;-83
2021/07/04 02:38:11;;;;;;;2.88;2.25;;;18.80;90.80;;;;;;2065331;28;20033;-83
2021/07/04 02:39:16;;;;;;;3.53;2.35;;;18.80;90.80;;;;;;2074320;28;20044;-84
2021/07/04 02:40:17;;;;;;;3.72;2.50;;;18.80;90.80;;;;;;2085442;28;20048;-85
2021/07/04 02:41:17;;;;;;;3.10;2.28;;;18.80;90.80;;;;;;2084084;28;20488;-84
2021/07/04 02:42:18;;;;;;;3.83;2.50;;;18.80;90.80;;;;;;2078529;28;20030;-84
2021/07/04 02:43:21;;;;;;;3.40;2.45;;;18.80;90.80;;;;;;2073391;28;20076;-84
2021/07/04 02:44:22;;;;;;;2.75;2.20;;;18.80;90.80;;;;;;2074879;28;20054;-84
2021/07/04 02:45:23;;;;;;;3.50;2.13;;;18.80;91.10;;;;;;2076680;28;20072;-85
2021/07/04 02:46:23;;;;;;;3.40;2.28;;;18.80;90.80;;;;;;2074670;28;20508;-84
2021/07/04 02:47:26;;;;;;;3.60;2.30;;;18.80;90.80;;;;;;2075952;28;20112;-84
2021/07/04 02:48:26;;;;;;;4.05;2.53;;;18.80;90.80;;;;;;2073834;28;20034;-85
2021/07/04 02:49:27;;;;;;;3.28;2.30;;;18.80;90.80;;;;;;2066169;28;20023;-84
2021/07/04 02:50:27;;;;;;;4.05;2.63;;;18.80;90.80;;;;;;2061838;28;20495;-84
2021/07/04 02:51:28;;;;;;;2.95;2.35;;;18.80;90.80;;;;;;2074389;28;20518;-85
2021/07/04 02:52:29;;;;;;;3.88;2.20;;;18.70;90.80;;;;;;2079179;28;20565;-84
2021/07/04 02:53:29;;;;;;;3.50;2.35;;;18.70;90.80;;;;;;2075077;28;20040;-85
2021/07/04 02:54:30;;;;;;;2.83;2.22;;;18.70;90.80;;;;;;2073694;28;20479;-85
2021/07/04 02:55:31;;;;;;;3.10;2.13;;;18.70;90.90;;;;;;2056080;28;20035;-84
2021/07/04 02:56:32;;;;;;;2.65;2.20;;;18.80;90.90;;;;;;2074862;28;20033;-85
2021/07/04 02:57:33;;;;;;;3.47;2.42;;;18.80;90.90;;;;;;2076206;28;20026;-84
2021/07/04 02:58:33;;;;;;;3.20;2.40;;;18.70;90.90;;;;;;2072970;28;20069;-84
2021/07/04 02:59:34;;;;;;;4.30;2.70;;;18.80;90.90;;;;;;2071549;28;20447;-84
2021/07/04 03:00:37;;;;;;;3.40;2.45;;;18.70;90.90;;;;;;2072472;28;20034;-84
2021/07/04 03:01:37;;;;;;;3.40;2.47;;;18.70;90.90;;;;;;2089438;28;20029;-84
2021/07/04 03:02:38;;;;;;;3.15;2.30;;;18.80;90.90;;;;;;2075794;28;20038;-84
2021/07/04 03:03:39;;;;;;;4.40;2.33;;;18.80;90.90;;;;;;2072174;28;20023;-84
2021/07/04 03:04:40;;;;;;;3.70;2.50;;;18.70;90.90;;;;;;2071899;28;20483;-84
2021/07/04 03:05:40;;;;;;;3.35;2.55;;;18.70;90.90;;;;;;2065034;28;20423;-85
2021/07/04 03:06:41;;;;;;;4.38;2.40;;;18.70;90.90;;;;;;2064330;28;20559;-84
2021/07/04 03:07:43;;;;;;;3.17;2.38;;;18.70;90.90;;;;;;2056790;28;20023;-85
2021/07/04 03:08:44;;;;;;;4.65;2.35;;;18.70;90.90;;;;;;2078543;28;20026;-85
2021/07/04 03:09:44;;;;;;;2.72;2.17;;;18.70;90.90;;;;;;2078490;28;20112;-84
2021/07/04 03:10:45;;;;;;;2.97;2.20;;;18.70;91.00;;;;;;2069423;28;20100;-84
2021/07/04 03:11:46;;;;;;;4.15;2.22;;;18.70;91.00;;;;;;2071370;28;20030;-85
2021/07/04 03:12:47;;;;;;;4.20;2.30;;;18.70;91.00;;;;;;2070161;28;20100;-84
2021/07/04 03:13:47;;;;;;;3.78;2.53;;;18.70;90.90;;;;;;2062879;28;20515;-85
2021/07/04 03:14:48;;;;;;;3.10;2.30;;;18.70;91.00;;;;;;2072105;28;20113;-85
2021/07/04 03:15:49;;;;;;;3.38;2.30;;;18.70;91.00;;;;;;2066838;28;20035;-85
2021/07/04 03:16:49;;;;;;;3.38;2.53;;;18.70;91.00;;;;;;2072964;28;20021;-85
2021/07/04 03:17:50;;;;;;;3.63;2.47;;;18.70;91.00;;;;;;2063245;28;20038;-85
2021/07/04 03:18:51;;;;;;;3.38;2.42;;;18.70;91.00;;;;;;2067358;28;20045;-84
2021/07/04 03:19:52;;;;;;;3.88;2.45;;;18.70;91.00;;;;;;2056888;28;20026;-84
2021/07/04 03:20:52;;;;;;;3.55;2.38;;;18.70;91.00;;;;;;2067003;28;20109;-85
2021/07/04 03:21:53;;;;;;;3.13;2.33;;;18.70;91.00;;;;;;2075350;28;20028;-84
2021/07/04 03:22:54;;;;;;;3.67;2.40;;;18.70;91.00;;;;;;2089334;28;20116;-85
2021/07/04 03:23:54;;;;;;;3.85;2.70;;;18.70;91.00;;;;;;2066783;28;20033;-83
2021/07/04 03:24:57;;;;;;;3.67;2.55;;;18.70;91.00;;;;;;2054961;28;20449;-85
2021/07/04 03:25:58;;;;;;;3.40;2.15;;;18.70;91.00;;;;;;2060738;28;20168;-85
2021/07/04 03:26:59;;;;;;;2.60;2.08;;;18.70;91.00;;;;;;2058485;28;20019;-85
2021/07/04 03:28:00;;;;;;;3.10;2.40;;;18.70;91.00;;;;;;2052732;28;20035;-85
2021/07/04 03:29:00;;;;;;;4.35;2.50;;;18.70;91.10;;;;;;2066320;28;20033;-84
2021/07/04 03:30:02;;;;;;;3.45;2.40;;;18.70;91.10;;;;;;2065335;28;20436;-84
2021/07/04 03:31:03;;;;;;;3.55;2.50;;;18.70;91.10;;;;;;2073275;28;20112;-84
2021/07/04 03:32:05;;;;;;;3.45;2.55;;;18.70;91.10;;;;;;2081040;28;20026;-84
2021/07/04 03:33:06;;;;;;;3.40;2.50;;;18.70;91.10;;;;;;2079747;28;20033;-84
2021/07/04 03:34:07;;;;;;;3.67;2.70;;;18.70;91.10;;;;;;2073210;28;20553;-84
2021/07/04 03:35:10;;;;;;;3.72;2.40;;;18.70;91.10;;;;;;2079259;28;20108;-84
2021/07/04 03:36:11;;;;;;;3.75;2.30;;;18.70;91.00;;;;;;2080996;28;20124;-84
2021/07/04 03:37:11;;;;;;;2.85;2.10;;;18.70;91.00;;;;;;2064837;28;20468;-83
2021/07/04 03:38:12;;;;;;;3.03;2.30;;;18.70;91.00;;;;;;2071522;28;20033;-83
2021/07/04 03:39:13;;;;;;;3.08;2.38;;;18.70;91.10;;;;;;2077840;28;20125;-83
2021/07/04 03:40:18;;;;;;;3.13;2.35;;;18.60;91.10;;;;;;2071914;28;20046;-83
2021/07/04 03:41:18;;;;;;;3.78;2.70;;;18.70;91.10;;;;;;2080264;28;20043;-84
2021/07/04 03:42:19;;;;;;;3.45;2.42;;;18.60;91.10;;;;;;2083961;28;20033;-83
2021/07/04 03:43:20;;;;;;;4.25;2.60;;;18.60;91.10;;;;;;2057695;28;20468;-83
2021/07/04 03:44:20;;;;;;;3.70;2.50;;;18.60;91.10;;;;;;2063907;28;20026;-84
2021/07/04 03:45:21;;;;;;;3.90;2.35;;;18.70;91.10;;;;;;2071193;28;20391;-84
2021/07/04 03:46:22;;;;;;;3.80;2.80;;;18.60;91.10;;;;;;2071310;28;20033;-83
2021/07/04 03:47:26;;;;;;;3.45;2.38;;;18.70;91.10;;;;;;2072659;28;20032;-83
2021/07/04 03:48:26;;;;;;;3.92;2.40;;;18.70;91.10;;;;;;2054144;28;20035;-83
2021/07/04 03:49:27;;;;;;;3.88;2.60;;;18.70;91.10;;;;;;2062745;28;20558;-83
2021/07/04 03:50:28;;;;;;;3.85;2.83;;;18.70;91.10;;;;;;2073702;28;20538;-83
2021/07/04 03:51:28;;;;;;;4.68;3.10;;;18.70;91.00;;;;;;2078192;28;20032;-83
2021/07/04 03:52:29;;;;;;;3.50;2.67;;;18.70;91.00;;;;;;2071622;28;20116;-83
2021/07/04 03:53:30;;;;;;;3.58;2.70;;;18.70;91.00;;;;;;2072561;28;20022;-84
2021/07/04 03:54:30;;;;;;;3.40;2.42;;;18.70;91.00;;;;;;2063493;28;20427;-83
2021/07/04 03:55:31;;;;;;;3.50;2.55;;;18.70;91.00;;;;;;2060289;28;20034;-83
2021/07/04 03:56:32;;;;;;;3.60;2.80;;;18.70;91.00;;;;;;2074638;28;20495;-83
2021/07/04 03:57:32;;;;;;;4.38;3.13;;;18.70;91.00;;;;;;2073405;28;20108;-84
2021/07/04 03:58:33;;;;;;;3.50;2.60;;;18.70;91.00;;;;;;2070960;28;20057;-83
2021/07/04 03:59:34;;;;;;;3.80;2.70;;;18.80;91.00;;;;;;2056742;28;20031;-83
2021/07/04 04:00:34;;;;;;;4.03;2.75;;;18.80;91.00;;;;;;2059735;28;20685;-83
2021/07/04 04:01:35;;;;;;;3.63;2.80;;;18.80;91.00;;;;;;2064873;28;20071;-83
2021/07/04 04:02:36;;;;;;;3.67;2.85;;;18.80;91.00;;;;;;2074649;28;20430;-83
2021/07/04 04:03:36;;;;;;;3.83;2.75;;;18.80;91.00;;;;;;2079014;28;20033;-83
2021/07/04 04:04:37;;;;;;;4.40;3.17;;;18.80;91.00;;;;;;2072663;28;20159;-83
2021/07/04 04:05:38;;;;;;;4.25;3.03;;;18.80;91.00;;;;;;2074912;28;20036;-83
2021/07/04 04:06:38;;;;;;;5.57;3.30;;;18.80;91.00;;;;;;2068064;28;20109;-83
2021/07/04 04:07:40;;;;;;;4.15;3.25;;;18.80;91.00;;;;;;2079479;28;20033;-83
2021/07/04 04:08:42;;;;;;;4.30;3.10;;;18.80;91.20;;;;;;2071042;28;20034;-83
2021/07/04 04:09:43;;;;;;;4.32;2.90;;;18.80;91.00;;;;;;2071598;28;20029;-83
2021/07/04 04:10:44;;;;;;;4.50;3.30;;;18.80;91.00;;;;;;2071318;28;20025;-83
2021/07/04 04:11:44;;;;;;;3.78;2.85;;;18.80;90.90;;;;;;2065905;28;20031;-83
2021/07/04 04:12:45;;;;;;;4.07;2.97;;;18.80;91.00;;;;;;2076079;28;20038;-83
2021/07/04 04:13:46;;;;;;;4.07;3.13;;;18.80;90.90;;;;;;2072441;28;20057;-83
2021/07/04 04:14:47;;;;;;;4.85;3.33;;;18.80;91.00;;;;;;2071876;28;20030;-83
2021/07/04 04:15:47;;;;;;;3.95;3.15;;;18.80;90.90;;;;;;2076744;28;20447;-83
2021/07/04 04:16:48;;;;;;;3.80;2.90;;;18.80;90.90;;;;;;2067454;28;20045;-83
2021/07/04 04:17:49;;;;;;;4.25;3.17;;;18.80;90.90;;;;;;2072393;28;20030;-83
2021/07/04 04:18:49;;;;;;;4.15;3.15;;;18.80;90.90;;;;;;2063040;28;20088;-83
2021/07/04 04:19:50;;;;;;;4.00;3.00;;;18.80;91.00;;;;;;2072339;28;20069;-83
2021/07/04 04:20:51;;;;;;;4.63;3.35;;;18.80;90.90;;;;;;2075916;28;20030;-84
2021/07/04 04:21:51;;;;;;;4.07;3.05;;;18.80;90.90;;;;;;2073183;28;20030;-84
2021/07/04 04:22:52;;;;;;;4.20;3.10;;;18.80;90.90;;;;;;2068939;28;20132;-83
2021/07/04 04:23:53;;;;;;;4.38;3.30;;;18.80;90.90;;;;;;2064596;28;20026;-83
2021/07/04 04:24:53;;;;;;;4.28;3.40;;;18.80;90.90;;;;;;2071274;28;20045;-83
2021/07/04 04:25:54;;;;;;;4.63;3.55;;;18.80;90.90;;;;;;2065182;28;20026;-84
2021/07/04 04:26:55;;;;;;;4.68;3.33;;;18.80;90.90;;;;;;2074162;28;20125;-83
2021/07/04 04:27:55;;;;;;;5.15;3.50;;;18.80;90.90;;;;;;2070673;28;20026;-83
2021/07/04 04:28:56;;;;;;;5.47;3.60;;;18.80;90.90;;;;;;2064183;28;20034;-83
2021/07/04 04:29:57;;;;;;;4.38;3.40;;;18.80;90.90;;;;;;2070595;28;20096;-84
2021/07/04 04:30:58;;;;;;;4.57;3.70;;;18.80;90.90;;;;;;2064520;28;20596;-84
2021/07/04 04:31:58;;;;;;;4.50;3.33;;;18.80;91.10;;;;;;2049286;28;20034;-83
2021/07/04 04:32:59;;;;;;;5.00;3.60;;;18.80;90.90;;;;;;2075029;28;20048;-83
2021/07/04 04:34:00;;;;;;;5.20;3.55;;;18.80;90.90;;;;;;2072815;28;20021;-83
2021/07/04 04:35:00;;;;;;;4.53;3.40;;;18.80;90.90;;;;;;2065141;28;20612;-84
2021/07/04 04:36:01;;;;;;;4.60;3.55;;;18.80;90.90;;;;;;2073182;28;20026;-84
2021/07/04 04:37:03;;;;;;;5.45;3.80;;;18.80;91.20;;;;;;2063047;28;20027;-84
2021/07/04 04:38:04;;;;;;;5.78;4.00;;;18.80;91.00;;;;;;2074424;28;20030;-84
2021/07/04 04:39:06;;;;;;;4.82;3.72;;;18.80;90.90;;;;;;2081611;28;20482;-84
2021/07/04 04:40:07;;;;;;;4.90;3.80;;;18.80;90.90;;;;;;2087267;28;20052;-84
2021/07/04 04:41:08;;;;;;;5.15;3.67;;;18.80;90.90;;;;;;2074435;28;20030;-84
2021/07/04 04:42:09;;;;;;;4.75;3.70;;;18.90;90.90;;;;;;2071473;28;20026;-83
2021/07/04 04:43:10;;;;;;;4.50;3.30;;;18.90;91.20;;;;;;2067466;28;20030;-84
2021/07/04 04:44:11;;;;;;;5.65;3.53;;;18.90;90.90;;;;;;2067836;28;20085;-84
2021/07/04 04:45:12;;;;;;;4.30;3.40;;;18.90;90.90;;;;;;2090426;28;20563;-84
2021/07/04 04:46:13;;;;;;;4.18;3.35;;;18.90;90.90;;;;;;2081403;28;20036;-83
2021/07/04 04:47:13;;;;;;;4.30;3.50;;;18.90;90.90;;;;;;2079236;28;20032;-84
2021/07/04 04:48:14;;;;;;;4.70;3.53;;;18.90;90.90;;;;;;2079977;28;20017;-84
2021/07/04 04:49:15;;;;;;;4.50;3.50;;;18.90;90.90;;;;;;2073036;28;20512;-83
2021/07/04 04:50:16;;;;;;;5.55;3.90;;;18.90;90.90;;;;;;2071947;28;20040;-84
2021/07/04 04:51:16;;;;;;;4.88;3.53;;;18.90;90.90;;;;;;2079423;28;20038;-84
2021/07/04 04:52:17;;;;;;;4.35;3.42;;;18.90;90.90;;;;;;2075177;28;20404;-84
2021/07/04 04:53:18;;;;;;;5.13;3.45;;;19.00;90.90;;;;;;2065297;28;20453;-84
2021/07/04 04:54:18;;;;;;;6.22;3.75;;;18.90;90.80;;;;;;2065208;28;20052;-84
2021/07/04 04:55:19;;;;;;;4.78;3.63;;;19.00;90.80;;;;;;2076592;28;20026;-84
2021/07/04 04:56:19;;;;;;;4.50;3.60;;;19.00;90.80;;;;;;2064917;28;20027;-83
2021/07/04 04:57:20;;;;;;;5.22;3.70;;;19.00;90.80;;;;;;2057673;28;20113;-84
2021/07/04 04:58:21;;;;;;;4.80;3.90;;;19.00;90.80;;;;;;2048145;28;20035;-84
2021/07/04 04:59:21;;;;;;;5.13;3.85;;;19.00;90.80;;;;;;2063516;28;20140;-84
2021/07/04 05:00:22;;;;;;;5.65;4.00;;;19.00;90.80;;;;;;2075291;28;20018;-84
2021/07/04 05:01:27;;;;;;;5.30;3.47;;;19.00;90.80;;;;;;2078607;28;20049;-84
2021/07/04 05:02:27;;;;;;;5.10;3.80;;;19.00;90.80;;;;;;2075818;28;20025;-84
2021/07/04 05:03:28;;;;;;;5.28;4.00;;;19.00;90.80;;;;;;2082104;28;20048;-84
2021/07/04 05:04:29;;;;;;;4.78;3.75;;;19.00;90.70;;;;;;2082913;28;20013;-83
2021/07/04 05:05:29;;;;;;;5.05;4.03;;;19.00;90.70;;;;;;2081806;28;20033;-83
2021/07/04 05:06:30;;;;;;;6.45;3.60;;;19.00;90.70;;;;;;2078183;28;20515;-83
2021/07/04 05:07:31;;;;;;;4.80;3.67;;;19.10;90.80;;;;;;2097738;28;20056;-83
2021/07/04 05:08:31;;;;;;;4.68;3.72;;;19.10;90.70;;;;;;2094802;28;20001;-84
2021/07/04 05:09:32;;;;;;;4.65;3.50;;;19.10;90.70;;;;;;2069661;28;20019;-82
2021/07/04 05:10:33;;;;;;;5.25;3.90;;;19.10;90.70;;;;;;2081578;28;20106;-84
2021/07/04 05:11:33;;;;;;;5.00;3.80;;;19.10;90.70;;;;;;2100260;28;20021;-83
2021/07/04 05:12:34;;;;;;;4.38;3.58;;;19.10;90.70;;;;;;2090642;28;20028;-84
2021/07/04 05:13:35;;;;;;;4.65;3.80;;;19.10;90.70;;;;;;2073714;28;20488;-83
2021/07/04 05:14:36;;;;;;;4.90;3.90;;;19.10;90.70;;;;;;2077999;28;20025;-84
2021/07/04 05:15:36;;;;;;;5.68;4.20;;;19.10;90.70;;;;;;2081598;28;20044;-84
2021/07/04 05:16:37;;;;;;;5.45;4.20;;;19.10;90.70;;;;;;2064386;28;20505;-84
2021/07/04 05:17:38;;;;;;;5.20;4.10;;;19.10;90.70;;;;;;2064079;28;20057;-84
2021/07/04 05:18:39;;;;;;;4.93;3.70;;;19.10;90.70;;;;;;2056367;28;20042;-84